tititudorancea.com
Station Historical Data
Daily Summary for July 2, 2018 Units:  Metric    English   Both
« Previous Day
Next Day »
Daily Weekly Monthly Yearly Custom
  High: Low: Average:
Temperature: -17.8 °C -0.3 °C 5.5 °C
Dew Point: -17.8 °C -1.1 °C 2.6 °C
Humidity: Humidity % 65 % 82 %
Wind Speed: 0 km/h 0 km/h 10 km/h
Wind Gust: 0 km/h - -
Wind:- - SSE
Pressure: 0 hPa 1026.3 hPa -
Precipitation: 0.25 mm    
Historical Graphs
 
 
Ararat weather Find more about Weather in Ararat, AU


 



 


Tabular Data for July 2, 2018
Time Temperature Dew Point Pressure Wind Wind Speed Wind Gust Humidity Rainfall Rate (Hourly)
-17.8 °C -17.8 °C 0 hPa Calm     Humidity % 0 mm
00:04 1 °C 0 °C 1032.7 hPa Calm     93 % 0 mm
00:09 1 °C 0.2 °C 1032.7 hPa Calm     94 % 0 mm
00:14 1 °C 0.2 °C 1032.4 hPa Calm     94 % 0 mm
00:19 1 °C 0.2 °C 1032.7 hPa Calm     94 % 0 mm
00:24 1.1 °C 0.2 °C 1032.4 hPa Calm     94 % 0 mm
00:29 1.1 °C 0.3 °C 1032.4 hPa Calm     94 % 0 mm
00:34 1 °C 0 °C 1032.7 hPa Calm     93 % 0 mm
00:39 0.9 °C 0.1 °C 1032.4 hPa Calm     94 % 0 mm
00:44 0.9 °C 0.1 °C 1032.4 hPa Calm     94 % 0 mm
00:49 1 °C 0.2 °C 1032.1 hPa Calm     94 % 0 mm
00:54 0.8 °C -0.2 °C 1032.1 hPa Calm     93 % 0 mm
00:59 0.7 °C -0.2 °C 1032.1 hPa Calm     94 % 0 mm
01:04 0.7 °C -0.2 °C 1032.1 hPa Calm     94 % 0 mm
01:09 0.7 °C -0.2 °C 1032.1 hPa Calm     94 % 0 mm
01:14 0.7 °C -0.2 °C 1031.7 hPa Calm     94 % 0 mm
01:19 0.4 °C -0.4 °C 1031.7 hPa Calm     94 % 0 mm
01:22 0.4 °C -0.4 °C 1032.1 hPa Calm     94 % 0 mm
01:34 0.3 °C -0.6 °C 1031.7 hPa Calm     94 % 0 mm
01:39 0.4 °C -0.4 °C 1032.1 hPa Calm     94 % 0 mm
01:44 0.4 °C -0.4 °C 1032.1 hPa North 3.7 km/h 2.4 km/h 94 % 0 mm
01:49 0.4 °C -0.4 °C 1031.7 hPa Calm     94 % 0 mm
01:54 0.4 °C -0.4 °C 1032.1 hPa Calm     94 % 0 mm
01:59 0.6 °C -0.2 °C 1032.1 hPa Calm     95 % 0 mm
02:04 0.5 °C -0.3 °C 1031.7 hPa Calm     94 % 0 mm
02:09 0.5 °C -0.3 °C 1031.7 hPa NW 3.7 km/h 2.1 km/h 94 % 0 mm
02:14 0.4 °C -0.4 °C 1031.7 hPa Calm   0.2 km/h 94 % 0 mm
02:19 0.5 °C -0.3 °C 1031.7 hPa Calm     94 % 0 mm
02:24 0.5 °C -0.3 °C 1031.7 hPa Calm     94 % 0 mm
02:29 0.4 °C -0.4 °C 1031.7 hPa Calm     94 % 0 mm
02:34 0.3 °C -0.5 °C 1031.7 hPa Calm     94 % 0 mm
02:39 0.4 °C -0.4 °C 1031.7 hPa Calm     94 % 0 mm
02:44 0.4 °C -0.4 °C 1031.7 hPa Calm     94 % 0 mm
02:49 0.4 °C -0.4 °C 1031.7 hPa Calm     94 % 0 mm
02:54 0.5 °C -0.3 °C 1031.7 hPa Calm     94 % 0 mm
02:59 0.3 °C -0.5 °C 1031.7 hPa Calm     94 % 0 mm
03:04 0.3 °C -0.5 °C 1031.7 hPa Calm     94 % 0 mm
03:09 0.3 °C -0.4 °C 1031.7 hPa Calm     95 % 0 mm
03:14 0.3 °C -0.4 °C 1031.4 hPa Calm     95 % 0 mm
03:19 0.2 °C -0.6 °C 1031.4 hPa Calm     94 % 0 mm
03:24 0.1 °C -0.7 °C 1031.4 hPa Calm     94 % 0 mm
03:29 -0.1 °C -0.9 °C 1031.4 hPa Calm     94 % 0 mm
03:34 -0.1 °C -0.9 °C 1031.4 hPa Calm     94 % 0 mm
03:39 -0.2 °C -1.1 °C 1031 hPa Calm     94 % 0 mm
03:44 -0.2 °C -1.1 °C 1031.4 hPa Calm     94 % 0 mm
03:49 -0.2 °C -0.9 °C 1031 hPa North 1.9 km/h 1.3 km/h 95 % 0 mm
03:54 -0.2 °C -0.9 °C 1031 hPa North 1.6 km/h   95 % 0 mm
03:59 -0.1 °C -0.8 °C 1031 hPa North 5.6 km/h 3.2 km/h 95 % 0 mm
04:04 -0.1 °C -0.8 °C 1031.4 hPa North 3.7 km/h 0.6 km/h 95 % 0 mm
04:09 0.1 °C -0.7 °C 1031 hPa Calm     95 % 0 mm
04:14 0.1 °C -0.6 °C 1031 hPa Calm     95 % 0 mm
04:19 0.2 °C -0.6 °C 1031 hPa Calm     95 % 0 mm
04:24 0.2 °C -0.6 °C 1031 hPa Calm     95 % 0 mm
04:29 0.1 °C -0.6 °C 1031 hPa Calm     95 % 0 mm
04:34 0 °C -0.8 °C 1031 hPa Calm     94 % 0 mm
04:39 -0.3 °C -1.1 °C 1030.7 hPa Calm     94 % 0 mm
04:44 -0.2 °C -0.9 °C 1031 hPa NW 3.7 km/h 3.1 km/h 95 % 0 mm
04:49 -0.1 °C -0.8 °C 1031 hPa NW 3.7 km/h 0.5 km/h 95 % 0 mm
04:54 0.1 °C -0.6 °C 1031 hPa NW 3.7 km/h 2.4 km/h 95 % 0 mm
04:59 0.1 °C -0.6 °C 1031 hPa NW 3.7 km/h 0.8 km/h 95 % 0 mm
05:04 0.1 °C -0.6 °C 1030.7 hPa Calm     95 % 0 mm
05:09 0.2 °C -0.6 °C 1030.7 hPa Calm     95 % 0 mm
05:14 0.3 °C -0.4 °C 1031 hPa Calm     95 % 0 mm
05:19 0.4 °C -0.3 °C 1031 hPa Calm     95 % 0 mm
05:24 0.5 °C -0.2 °C 1031 hPa Calm     95 % 0 mm
05:29 0.5 °C -0.2 °C 1030.7 hPa Calm     95 % 0 mm
05:34 0.4 °C -0.3 °C 1030.7 hPa Calm     95 % 0 mm
05:39 0.4 °C -0.3 °C 1030.7 hPa Calm   0.2 km/h 95 % 0 mm
05:44 0.3 °C -0.4 °C 1030.7 hPa Calm     95 % 0 mm
05:49 0.2 °C -0.5 °C 1030.7 hPa Calm     95 % 0 mm
05:54 0.1 °C -0.6 °C 1030.7 hPa NW 3.7 km/h 1.3 km/h 95 % 0 mm
05:59 0.1 °C -0.7 °C 1030.7 hPa Calm     95 % 0 mm
06:04 0.1 °C -0.6 °C 1030.7 hPa North 3.7 km/h 1.1 km/h 95 % 0 mm
06:09 0.1 °C -0.6 °C 1030.7 hPa NW 3.7 km/h 2.3 km/h 95 % 0 mm
06:14 0.2 °C -0.6 °C 1031 hPa NW 5.6 km/h 3.5 km/h 95 % 0 mm
06:19 0.3 °C -0.4 °C 1031 hPa NW 3.7 km/h 3.1 km/h 95 % 0 mm
06:24 0.4 °C -0.3 °C 1031 hPa Calm     95 % 0 mm
06:29 0.6 °C 0.1 °C 1030.7 hPa Calm     96 % 0 mm
06:34 0.5 °C -0.2 °C 1031 hPa Calm     95 % 0 mm
06:39 0.3 °C -0.4 °C 1030.7 hPa Calm     95 % 0 mm
06:44 0.3 °C -0.4 °C 1030.7 hPa Calm     95 % 0 mm
06:49 0.2 °C -0.5 °C 1031 hPa Calm     95 % 0 mm
06:54 0.1 °C -0.6 °C 1030.7 hPa North 3.7 km/h 2.6 km/h 95 % 0 mm
06:59 0.1 °C -0.6 °C 1030.7 hPa North 3.7 km/h 2.6 km/h 95 % 0 mm
07:04 0.1 °C -0.6 °C 1030.7 hPa NW 3.7 km/h 0.3 km/h 95 % 0 mm
07:09 0.1 °C -0.6 °C 1030.7 hPa North 3.7 km/h 2.6 km/h 95 % 0 mm
07:14 0.1 °C -0.6 °C 1030.7 hPa North 3.7 km/h 1.6 km/h 95 % 0 mm
07:19 0.5 °C -0.1 °C 1030.7 hPa North 3.7 km/h 1.8 km/h 96 % 0 mm
07:24 0.9 °C 0.3 °C 1031 hPa Calm     96 % 0 mm
07:29 1.1 °C 0.6 °C 1031 hPa NW 5.6 km/h 3.5 km/h 96 % 0 mm
07:34 1.4 °C 0.8 °C 1031 hPa North 3.7 km/h 2.3 km/h 96 % 0 mm
07:39 1.4 °C 0.8 °C 1031 hPa North 1.9 km/h   96 % 0 mm
07:44 1.3 °C 0.6 °C 1031 hPa NW 3.7 km/h 0.2 km/h 95 % 0 mm
07:49 1.2 °C 0.4 °C 1031 hPa NW 1.9 km/h 0.2 km/h 95 % 0 mm
07:54 1.1 °C 0.4 °C 1031 hPa North 4.8 km/h 3.5 km/h 95 % 0 mm
07:59 1.1 °C 0.4 °C 1031 hPa NW 5.6 km/h 4.2 km/h 95 % 0 mm
08:04 1.1 °C 0.4 °C 1031 hPa NW 3.7 km/h 2.3 km/h 95 % 0 mm
08:09 1.1 °C 0.4 °C 1031.4 hPa Calm     95 % 0 mm
08:14 1.2 °C 0.7 °C 1031.4 hPa North 3.7 km/h 0.5 km/h 96 % 0 mm
08:19 1.3 °C 0.8 °C 1031 hPa North 3.2 km/h 0.8 km/h 96 % 0 mm
08:24 1.4 °C 0.9 °C 1031.4 hPa Calm     96 % 0 mm
08:29 1.5 °C 0.9 °C 1031.4 hPa Calm     96 % 0 mm
08:34 1.7 °C 1.1 °C 1031.4 hPa Calm     96 % 0 mm
08:39 2.1 °C 1.5 °C 1031 hPa Calm     96 % 0 mm
08:44 2.4 °C 1.9 °C 1031.4 hPa Calm     96 % 0 mm
08:49 2.7 °C 2.1 °C 1031.4 hPa Calm     96 % 0 mm
08:54 3.3 °C 2.8 °C 1031.4 hPa Calm     97 % 0 mm
08:59 3.8 °C 3.4 °C 1031.7 hPa NW 1.9 km/h 1.9 km/h 97 % 0.25 mm
09:04 3.9 °C 3.5 °C 1031.4 hPa NW 5.6 km/h 4.2 km/h 97 % 0.25 mm
09:09 4.1 °C 3.7 °C 1031.4 hPa NW 5.6 km/h 4.5 km/h 97 % 0.25 mm
09:14 4.3 °C 3.8 °C 1031.4 hPa North 5.6 km/h 2.3 km/h 97 % 0.25 mm
09:19 4.7 °C 4.3 °C 1031.4 hPa NW 5.6 km/h 2.9 km/h 97 % 0.25 mm
09:24 5.2 °C 4.7 °C 1031.4 hPa North 8 km/h 5.5 km/h 97 % 0.25 mm
09:29 5.5 °C 5.1 °C 1031.4 hPa North 6.4 km/h 6.4 km/h 97 % 0.25 mm
09:34 5.8 °C 5.3 °C 1031.4 hPa NW 9.3 km/h 6.9 km/h 97 % 0.25 mm
09:39 6 °C 5.4 °C 1031.4 hPa NW 6.4 km/h 5.5 km/h 96 % 0.25 mm
09:44 6.2 °C 5.6 °C 1031.4 hPa NW 9.3 km/h 6.9 km/h 96 % 0.25 mm
09:49 6.3 °C 5.6 °C 1031 hPa NW 7.4 km/h 6.3 km/h 95 % 0.25 mm
09:54 6.5 °C 5.8 °C 1031 hPa NW 11.1 km/h 7.4 km/h 95 % 0.25 mm
09:59 6.8 °C 5.9 °C 1031 hPa NW 8 km/h 7.9 km/h 94 % 0 mm
10:04 7 °C 5.9 °C 1031 hPa NW 9.3 km/h 7.2 km/h 93 % 0 mm
10:09 7.3 °C 6.1 °C 1031 hPa NNW 12.9 km/h 6.9 km/h 92 % 0 mm
10:14 7.6 °C 6.2 °C 1031 hPa NNW 11.3 km/h 4.8 km/h 91 % 0 mm
10:19 7.9 °C 6 °C 1031 hPa North 16.7 km/h 11.7 km/h 88 % 0 mm
10:24 8.2 °C 6.2 °C 1031 hPa North 13 km/h 5.1 km/h 87 % 0 mm
10:29 8.6 °C 6.2 °C 1031 hPa North 13 km/h 10.5 km/h 85 % 0 mm
10:34 8.7 °C 5.8 °C 1031 hPa North 13 km/h 7.9 km/h 82 % 0 mm
10:39 8.8 °C 5.7 °C 1031 hPa North 11.1 km/h 8.5 km/h 81 % 0 mm
10:44 8.9 °C 5.8 °C 1031 hPa North 11.1 km/h 8.7 km/h 81 % 0 mm
10:49 9.1 °C 5.8 °C 1031 hPa NNW 14.5 km/h 8 km/h 80 % 0 mm
10:54 9.1 °C 5.8 °C 1031 hPa North 14.8 km/h 7.4 km/h 80 % 0 mm
10:59 9.2 °C 5.8 °C 1031 hPa NNW 14.8 km/h 9.8 km/h 79 % 0 mm
11:04 9.2 °C 5.6 °C 1031 hPa NNW 16.7 km/h 9.7 km/h 78 % 0 mm
11:09 9.3 °C 5.7 °C 1031 hPa NNW 14.8 km/h 11.6 km/h 78 % 0 mm
11:14 9.4 °C 5.9 °C 1031 hPa NNW 9.3 km/h 8.7 km/h 79 % 0 mm
11:19 9.5 °C 5.7 °C 1031 hPa NNW 18.5 km/h 8.2 km/h 77 % 0 mm
11:24 9.5 °C 5.7 °C 1031 hPa NW 20.4 km/h 11.7 km/h 77 % 0 mm
11:29 9.4 °C 5.6 °C 1031 hPa North 13 km/h 10.8 km/h 77 % 0 mm
11:34 9.6 °C 5.6 °C 1031 hPa NNW 9.3 km/h 6.4 km/h 76 % 0 mm
11:39 9.8 °C 5.7 °C 1030.7 hPa North 11.3 km/h 9.2 km/h 76 % 0 mm
11:44 9.9 °C 5.4 °C 1030.7 hPa North 16.7 km/h 13.5 km/h 74 % 0 mm
11:49 9.9 °C 5.5 °C 1030.7 hPa North 22.2 km/h 15.3 km/h 74 % 0 mm
11:54 9.8 °C 5.2 °C 1030.7 hPa North 19.3 km/h 14.3 km/h 73 % 0 mm
11:59 9.8 °C 5.4 °C 1030.4 hPa North 16.7 km/h 6.8 km/h 74 % 0 mm
12:04 10.1 °C 5.5 °C 1030.4 hPa NNW 14.8 km/h 11.1 km/h 73 % 0 mm
12:09 10.2 °C 5.7 °C 1030 hPa NNW 11.1 km/h 6.4 km/h 74 % 0 mm
12:14 10.3 °C 5.3 °C 1029.7 hPa North 20.4 km/h 15.1 km/h 71 % 0 mm
12:19 10.3 °C 5.2 °C 1029.7 hPa North 14.8 km/h 10.1 km/h 71 % 0 mm
12:24 10.2 °C 4.9 °C 1029.7 hPa North 22.2 km/h 10.3 km/h 70 % 0 mm
12:29 10.2 °C 5.2 °C 1029.7 hPa North 16.7 km/h 11.4 km/h 71 % 0 mm
12:34 10.2 °C 5.2 °C 1029.7 hPa North 13 km/h 7.7 km/h 71 % 0 mm
12:39 10.1 °C 5.1 °C 1029.7 hPa North 18.5 km/h 10.8 km/h 71 % 0 mm
12:44 10.2 °C 5 °C 1029.3 hPa NNE 20.4 km/h 12.7 km/h 70 % 0 mm
12:49 10.3 °C 5.1 °C 1029.3 hPa NNW 24.1 km/h 12.4 km/h 70 % 0 mm
12:54 10.3 °C 5.3 °C 1029.3 hPa North 18.5 km/h 8.2 km/h 71 % 0 mm
12:59 10.3 °C 4.9 °C 1029.3 hPa North 24.1 km/h 16.1 km/h 69 % 0 mm
13:04 10.2 °C 5 °C 1029 hPa North 18.5 km/h 12.6 km/h 70 % 0 mm
13:09 10.4 °C 5.2 °C 1029 hPa NNW 18.5 km/h 17.1 km/h 70 % 0 mm
13:14 10.4 °C 5 °C 1029 hPa NNE 18.5 km/h 10 km/h 69 % 0 mm
13:19 10.7 °C 5.2 °C 1028.7 hPa North 20.4 km/h 13 km/h 69 % 0 mm
13:24 10.7 °C 5.1 °C 1028.7 hPa NW 17.7 km/h 16.7 km/h 68 % 0 mm
13:29 10.7 °C 5 °C 1028.7 hPa North 18.5 km/h 11.7 km/h 68 % 0 mm
13:34 10.8 °C 5.3 °C 1028.3 hPa North 25.9 km/h 13.4 km/h 69 % 0 mm
13:39 10.8 °C 5.2 °C 1028.3 hPa North 18.5 km/h 15.3 km/h 68 % 0 mm
13:44 10.8 °C 5.2 °C 1028.3 hPa NNE 18.5 km/h 11.1 km/h 68 % 0 mm
13:49 11 °C 5.3 °C 1028.3 hPa North 18.5 km/h 12.2 km/h 68 % 0 mm
13:54 10.9 °C 5.2 °C 1028.3 hPa North 16.7 km/h 9.2 km/h 68 % 0 mm
13:59 10.9 °C 5 °C 1028 hPa NW 20.4 km/h 11.4 km/h 67 % 0 mm
14:04 10.9 °C 5.1 °C 1028 hPa North 18.5 km/h 15 km/h 67 % 0 mm
14:09 11.1 °C 5.2 °C 1028 hPa NNW 16.7 km/h 7.2 km/h 67 % 0 mm
14:14 11 °C 4.9 °C 1028 hPa NNW 18.5 km/h 13.8 km/h 66 % 0 mm
14:19 10.9 °C 5 °C 1028 hPa North 20.4 km/h 14.5 km/h 67 % 0 mm
14:24 10.9 °C 5 °C 1027.7 hPa North 25.7 km/h 14.2 km/h 67 % 0 mm
14:29 11 °C 5.1 °C 1027.7 hPa North 20.9 km/h 10 km/h 67 % 0 mm
14:34 11.3 °C 5.4 °C 1027.7 hPa North 16.7 km/h 5.8 km/h 67 % 0 mm
14:39 11.4 °C 5.3 °C 1027.7 hPa North 22.2 km/h 10.3 km/h 66 % 0 mm
14:44 11.3 °C 5.2 °C 1027.7 hPa North 25.9 km/h 8.5 km/h 66 % 0 mm
14:49 11.1 °C 5 °C 1027.7 hPa NNE 24.1 km/h 9.2 km/h 66 % 0 mm
14:54 11.1 °C 5 °C 1027.7 hPa North 24.1 km/h 12.1 km/h 66 % 0 mm
14:59 11.1 °C 4.9 °C 1027.7 hPa North 18.5 km/h 14 km/h 66 % 0 mm
15:04 11.2 °C 5.1 °C 1027.3 hPa North 16.7 km/h 12.9 km/h 66 % 0 mm
15:09 11.3 °C 5.2 °C 1027.3 hPa NNE 16.7 km/h 11.3 km/h 66 % 0 mm
15:14 11.1 °C 4.9 °C 1027.3 hPa NNE 18.5 km/h 15 km/h 66 % 0 mm
15:19 11 °C 4.9 °C 1027.3 hPa North 18.5 km/h 7.9 km/h 66 % 0 mm
15:24 11.1 °C 4.7 °C 1027.3 hPa North 16.7 km/h 8 km/h 65 % 0 mm
15:29 11.2 °C 4.8 °C 1027.3 hPa North 16.1 km/h 10.8 km/h 65 % 0 mm
15:34 11.2 °C 4.9 °C 1027.3 hPa NNE 20.4 km/h 13.7 km/h 65 % 0 mm
15:39 11.2 °C 5.1 °C 1027.3 hPa North 13 km/h 9.7 km/h 66 % 0 mm
15:44 11.1 °C 4.8 °C 1027 hPa NNE 18.5 km/h 13.2 km/h 65 % 0 mm
15:49 11 °C 4.7 °C 1027 hPa North 16.7 km/h 5.8 km/h 65 % 0 mm
15:54 11 °C 4.7 °C 1027 hPa North 18.5 km/h 9.5 km/h 65 % 0 mm
15:59 10.9 °C 4.6 °C 1027 hPa NNE 20.4 km/h 15.9 km/h 65 % 0 mm
16:04 10.8 °C 4.7 °C 1027 hPa North 16.7 km/h 11.3 km/h 66 % 0 mm
16:09 10.8 °C 4.7 °C 1027 hPa North 18.5 km/h 9 km/h 66 % 0 mm
16:14 10.7 °C 4.4 °C 1027 hPa North 16.7 km/h 13.2 km/h 65 % 0 mm
16:19 10.5 °C 4.4 °C 1027 hPa North 20.4 km/h 10.3 km/h 66 % 0 mm
16:24 10.4 °C 4.3 °C 1027 hPa NNE 22.2 km/h 11.6 km/h 66 % 0 mm
16:29 10.2 °C 4.3 °C 1027.3 hPa North 13 km/h 10.5 km/h 67 % 0 mm
16:34 10.1 °C 4.2 °C 1027 hPa NNE 14.8 km/h 13.2 km/h 67 % 0 mm
16:39 10 °C 4.2 °C 1027 hPa North 11.1 km/h 8.9 km/h 67 % 0 mm
16:44 9.9 °C 4.1 °C 1027 hPa North 16.7 km/h 11.7 km/h 67 % 0 mm
16:49 9.8 °C 4.2 °C 1027 hPa North 11.3 km/h 7.2 km/h 68 % 0 mm
16:54 9.7 °C 4.3 °C 1027 hPa NNE 13 km/h 6.3 km/h 69 % 0 mm
16:59 9.6 °C 4.2 °C 1027 hPa NNE 11.1 km/h 4.8 km/h 69 % 0 mm
17:04 9.4 °C 4.2 °C 1027 hPa NNE 11.3 km/h 5.3 km/h 70 % 0 mm
17:09 9.2 °C 4.2 °C 1027 hPa NNE 8 km/h 6.9 km/h 71 % 0 mm
17:14 9.1 °C 4.1 °C 1027 hPa NNE 9.3 km/h 8.9 km/h 71 % 0 mm
17:19 8.9 °C 3.9 °C 1027 hPa North 5.6 km/h 5.6 km/h 71 % 0 mm
17:24 8.8 °C 4.1 °C 1027 hPa NNE 11.1 km/h 9.3 km/h 72 % 0 mm
17:29 8.7 °C 3.9 °C 1027 hPa North 11.1 km/h 4.5 km/h 72 % 0 mm
17:34 8.6 °C 4.1 °C 1027 hPa NNE 11.1 km/h 3.9 km/h 73 % 0 mm
17:39 8.5 °C 3.9 °C 1027 hPa North 13 km/h 6.4 km/h 73 % 0 mm
17:44 8.4 °C 3.8 °C 1027 hPa North 11.1 km/h 7.6 km/h 73 % 0 mm
17:49 8.3 °C 3.8 °C 1027 hPa North 9.7 km/h 7.7 km/h 73 % 0 mm
17:54 8.2 °C 3.8 °C 1026.6 hPa North 13 km/h 7.6 km/h 74 % 0 mm
17:59 8.2 °C 3.8 °C 1027 hPa NNE 11.1 km/h 7.6 km/h 74 % 0 mm
18:04 8.1 °C 3.8 °C 1026.6 hPa NNE 9.3 km/h 7.1 km/h 74 % 0 mm
18:09 8.1 °C 3.7 °C 1026.6 hPa NNE 11.1 km/h 8 km/h 74 % 0 mm
18:14 8 °C 3.7 °C 1026.6 hPa NNE 11.1 km/h 5.6 km/h 74 % 0 mm
18:19 8 °C 3.7 °C 1026.6 hPa North 13 km/h 9.5 km/h 74 % 0 mm
18:24 7.9 °C 3.6 °C 1027 hPa NNE 14.8 km/h 7.1 km/h 74 % 0 mm
18:29 7.9 °C 3.6 °C 1027 hPa NNE 9.3 km/h 8.4 km/h 74 % 0 mm
18:34 7.9 °C 3.6 °C 1027 hPa NNE 11.3 km/h 7.6 km/h 74 % 0 mm
18:39 7.9 °C 3.6 °C 1027 hPa NNE 14.5 km/h 10.1 km/h 74 % 0 mm
18:44 7.9 °C 3.4 °C 1027 hPa North 14.8 km/h 5.5 km/h 73 % 0 mm
18:49 8 °C 3.4 °C 1027 hPa North 11.3 km/h 8.5 km/h 73 % 0 mm
18:54 8 °C 3.4 °C 1027 hPa North 16.7 km/h 8 km/h 73 % 0 mm
18:59 8 °C 3.4 °C 1027 hPa North 18.5 km/h 6.4 km/h 73 % 0 mm
19:04 8.1 °C 3.5 °C 1027 hPa North 14.5 km/h 7.2 km/h 73 % 0 mm
19:09 8.1 °C 3.6 °C 1027 hPa North 13 km/h 8.2 km/h 73 % 0 mm
19:14 8.2 °C 3.4 °C 1026.6 hPa NNE 18.5 km/h 10 km/h 72 % 0 mm
19:19 8.3 °C 3.5 °C 1026.6 hPa NNE 16.7 km/h 12.9 km/h 72 % 0 mm
19:24 8.3 °C 3.5 °C 1026.6 hPa NNE 19.3 km/h 13 km/h 72 % 0 mm
19:29 8.2 °C 3.4 °C 1026.6 hPa NNE 18.5 km/h 14.6 km/h 72 % 0 mm
19:34 8.2 °C 3.4 °C 1026.6 hPa NNE 22.2 km/h 13.8 km/h 72 % 0 mm
19:39 8 °C 3.3 °C 1026.6 hPa North 18.5 km/h 17.1 km/h 72 % 0 mm
19:44 7.9 °C 3.3 °C 1026.6 hPa NNE 19.3 km/h 14 km/h 73 % 0 mm
19:49 7.8 °C 3.3 °C 1027 hPa NNE 18.5 km/h 13 km/h 73 % 0 mm
19:54 7.8 °C 3.3 °C 1027 hPa NNE 22.2 km/h 16.1 km/h 73 % 0 mm
19:59 7.8 °C 3.3 °C 1027 hPa NNE 20.4 km/h 18.5 km/h 73 % 0 mm
20:04 7.8 °C 3.2 °C 1027 hPa NNE 16.7 km/h 10.9 km/h 73 % 0 mm
20:09 7.7 °C 3.2 °C 1027 hPa NNE 22.5 km/h 17.1 km/h 73 % 0 mm
20:14 7.7 °C 3.1 °C 1027.3 hPa NNE 17.7 km/h 9.2 km/h 73 % 0 mm
20:19 7.6 °C 3.2 °C 1027.3 hPa NNE 18.5 km/h 11.3 km/h 74 % 0 mm
20:24 7.4 °C 3.1 °C 1027.3 hPa NNE 14.8 km/h 8.2 km/h 74 % 0 mm
20:29 7.4 °C 3.2 °C 1027.3 hPa North 12.9 km/h 7.2 km/h 75 % 0 mm
20:34 7.3 °C 3.2 °C 1027.3 hPa North 13 km/h 7.9 km/h 75 % 0 mm
20:39 7.3 °C 3.1 °C 1027.3 hPa NNE 11.1 km/h 7.6 km/h 75 % 0 mm
20:44 7.2 °C 3.1 °C 1027.3 hPa NNE 16.1 km/h 9.3 km/h 75 % 0 mm
20:49 7.2 °C 3.1 °C 1027.3 hPa North 14.8 km/h 9.8 km/h 75 % 0 mm
20:54 7.2 °C 3.1 °C 1027.3 hPa North 18.5 km/h 11.1 km/h 75 % 0 mm
20:59 7.2 °C 3.1 °C 1027.3 hPa North 13 km/h 8.9 km/h 75 % 0 mm
21:04 7.1 °C 3 °C 1027.7 hPa North 11.1 km/h 6.3 km/h 75 % 0 mm
21:09 7.1 °C 3.1 °C 1027.7 hPa North 14.8 km/h 9 km/h 76 % 0 mm
21:14 7 °C 3.1 °C 1027.3 hPa North 14.8 km/h 10.5 km/h 76 % 0 mm
21:19 7 °C 3.1 °C 1027.3 hPa NNE 18.5 km/h 9.2 km/h 76 % 0 mm
21:24 7.1 °C 3.1 °C 1027.3 hPa NNE 20.4 km/h 13.4 km/h 76 % 0 mm
21:29 6.9 °C 3 °C 1027.3 hPa NNE 16.7 km/h 11.1 km/h 76 % 0 mm
21:34 6.8 °C 2.9 °C 1027.3 hPa NNE 18.5 km/h 8.7 km/h 76 % 0 mm
21:39 6.7 °C 2.9 °C 1027.3 hPa NNE 14.8 km/h 10.6 km/h 77 % 0 mm
21:44 6.7 °C 2.9 °C 1027.3 hPa NNE 13 km/h 8 km/h 77 % 0 mm
21:49 6.6 °C 2.9 °C 1027.3 hPa NNE 19.3 km/h 11.4 km/h 77 % 0 mm
21:54 6.6 °C 2.9 °C 1027 hPa NNE 14.8 km/h 11.9 km/h 77 % 0 mm
21:59 6.7 °C 2.9 °C 1027 hPa NNE 22.2 km/h 10.5 km/h 77 % 0 mm
22:04 6.6 °C 2.9 °C 1027 hPa NNE 18.5 km/h 11.7 km/h 77 % 0 mm
22:09 6.5 °C 2.8 °C 1027 hPa NNE 14.8 km/h 8.4 km/h 77 % 0 mm
22:14 6.4 °C 2.8 °C 1027 hPa NNE 13 km/h 6.8 km/h 78 % 0 mm
22:19 6.3 °C 2.7 °C 1027 hPa NNE 13 km/h 12.2 km/h 78 % 0 mm
22:24 6.2 °C 2.6 °C 1027 hPa NNE 11.3 km/h 11.3 km/h 78 % 0 mm
22:29 6.2 °C 2.8 °C 1026.6 hPa NNE 14.8 km/h 9.5 km/h 79 % 0 mm
22:34 6.1 °C 2.7 °C 1026.6 hPa NNE 13 km/h 9.2 km/h 79 % 0 mm
22:39 6.1 °C 2.7 °C 1026.6 hPa NNE 20.4 km/h 8.5 km/h 79 % 0 mm
22:44 6.2 °C 2.8 °C 1026.6 hPa North 16.1 km/h 9.5 km/h 79 % 0 mm
22:49 6.1 °C 2.7 °C 1026.6 hPa North 14.8 km/h 11.4 km/h 79 % 0 mm
22:54 6.2 °C 2.9 °C 1026.6 hPa North 13 km/h 3.9 km/h 80 % 0 mm
22:59 6.2 °C 2.9 °C 1027 hPa North 14.8 km/h 8.7 km/h 80 % 0 mm
23:04 6.2 °C 3 °C 1027 hPa North 13 km/h 6.4 km/h 80 % 0 mm
23:09 6.2 °C 2.8 °C 1026.6 hPa North 11.1 km/h 10.6 km/h 79 % 0 mm
23:14 6.2 °C 2.8 °C 1026.6 hPa North 11.3 km/h 8.7 km/h 79 % 0 mm
23:19 6.2 °C 2.9 °C 1026.6 hPa NNE 18.5 km/h 13.8 km/h 80 % 0 mm
23:24 6.1 °C 2.9 °C 1026.6 hPa NNE 13 km/h 7.6 km/h 80 % 0 mm
23:29 6 °C 2.8 °C 1027 hPa NNE 11.1 km/h 6.1 km/h 80 % 0 mm
23:34 5.9 °C 2.7 °C 1027 hPa NNE 8 km/h 4.7 km/h 80 % 0 mm
23:39 5.8 °C 2.6 °C 1026.6 hPa NNE 7.4 km/h 3.9 km/h 80 % 0 mm
23:44 5.7 °C 2.7 °C 1026.6 hPa NNE 8 km/h 7.7 km/h 81 % 0 mm
23:49 5.6 °C 2.6 °C 1026.6 hPa NNE 7.4 km/h 4.5 km/h 81 % 0 mm
23:54 5.7 °C 2.8 °C 1026.3 hPa NNE 9.3 km/h 5.8 km/h 82 % 0 mm
23:59 5.7 °C 2.9 °C 1026.3 hPa NNE 14.5 km/h 7.1 km/h 82 % 0 mm
Ararat Weather
Compliments of Weather Underground - 2.25 mb
Click here to send mail.


ABOUT

Live weather data from Ararat, Victoria, Australia, 3377
Data uploaded from Cumulus every 5 minutes to Weather Underground.
This site then downloads the raw data for formatting and display.
Metric and imperial data can be displayed. Graphs and historical data available.
Includes Sun and Moon times and rain image live from BOM.

Check out Ararat Weather on Facebook, Twitter and Google +

Help support ongoing costs by checking out the ads





Follow @AraratWeather